Time;durP1;ratioP1;P1;durP2;ratioP2;P2;SDS_P1;SDS_P2;PMS_P1;PMS_P2;Temp;Humidity;BMP_temperature;BMP_pressure;BME280_temperature;BME280_humidity;BME280_pressure;Samples;Min_cycle;Max_cycle;Signal;HPM_P1;HPM_P2
2024/03/10 00:01:36;;;;;;;43.72;36.58;;;6.50;99.90;;;;;;4974965;28;20049;-69
2024/03/10 00:04:03;;;;;;;48.10;37.92;;;6.40;99.90;;;;;;4969109;28;20049;-69
2024/03/10 00:06:30;;;;;;;43.38;37.08;;;6.40;99.90;;;;;;4970493;28;20506;-70
2024/03/10 00:08:59;;;;;;;44.67;37.60;;;6.40;99.90;;;;;;4976520;28;20038;-70
2024/03/10 00:11:27;;;;;;;44.85;37.35;;;6.40;99.90;;;;;;4972147;28;20715;-70
2024/03/10 00:13:55;;;;;;;45.33;37.95;;;6.40;99.90;;;;;;4973053;28;20049;-70
2024/03/10 00:16:22;;;;;;;45.13;36.78;;;6.40;99.90;;;;;;4972183;28;20128;-70
2024/03/10 00:18:49;;;;;;;43.80;38.33;;;6.40;99.90;;;;;;4976005;28;20077;-68
2024/03/10 00:21:16;;;;;;;44.97;36.35;;;6.50;99.90;;;;;;4968817;28;20038;-70
2024/03/10 00:23:43;;;;;;;42.88;37.33;;;6.50;99.90;;;;;;4975491;28;20046;-69
2024/03/10 00:26:11;;;;;;;46.22;36.00;;;6.50;99.90;;;;;;4967850;28;20422;-70
2024/03/10 00:28:38;;;;;;;44.35;35.70;;;6.50;99.90;;;;;;4978858;28;20551;-69
2024/03/10 00:31:05;;;;;;;45.50;36.90;;;6.40;99.90;;;;;;4972504;28;20672;-68
2024/03/10 00:33:33;;;;;;;47.08;38.10;;;6.40;99.90;;;;;;4981350;28;20066;-70
2024/03/10 00:36:01;;;;;;;44.45;38.08;;;6.40;99.90;;;;;;4972334;28;20053;-69
2024/03/10 00:38:28;;;;;;;47.50;37.47;;;6.40;99.90;;;;;;4978457;28;20737;-70
2024/03/10 00:40:55;;;;;;;48.20;38.30;;;6.30;99.90;;;;;;4960803;28;20567;-70
2024/03/10 00:43:22;;;;;;;45.35;38.03;;;6.30;99.90;;;;;;4977579;28;20120;-69
2024/03/10 00:45:52;;;;;;;47.97;37.55;;;6.40;99.90;;;;;;4975844;28;20038;-68
2024/03/10 00:48:20;;;;;;;48.05;39.00;;;6.40;99.90;;;;;;4968005;28;20582;-69
2024/03/10 00:50:51;;;;;;;49.65;38.50;;;6.40;99.90;;;;;;4976481;28;20554;-70
2024/03/10 00:53:18;;;;;;;46.85;38.47;;;6.40;99.90;;;;;;4977985;28;20213;-68
2024/03/10 00:55:46;;;;;;;46.85;38.25;;;6.30;99.90;;;;;;4977969;28;20053;-70
2024/03/10 00:58:13;;;;;;;48.78;38.13;;;6.30;99.90;;;;;;4970967;28;20451;-70
2024/03/10 01:00:41;;;;;;;44.65;38.10;;;6.30;99.90;;;;;;4973390;28;20625;-70
2024/03/10 01:03:11;;;;;;;50.38;38.53;;;6.40;99.90;;;;;;4978395;28;20062;-70
2024/03/10 01:05:38;;;;;;;52.95;40.17;;;6.30;99.90;;;;;;4958062;28;20046;-70
2024/03/10 01:08:05;;;;;;;44.22;37.60;;;6.30;99.90;;;;;;4971964;28;20077;-71
2024/03/10 01:10:33;;;;;;;46.80;36.63;;;6.40;99.90;;;;;;4977711;28;20053;-69
2024/03/10 01:13:00;;;;;;;45.97;37.45;;;6.30;99.90;;;;;;4980170;28;20121;-71
2024/03/10 01:15:28;;;;;;;44.55;36.60;;;6.30;99.90;;;;;;4976561;28;20988;-70
2024/03/10 01:17:55;;;;;;;43.90;36.20;;;6.30;99.90;;;;;;4973101;28;20057;-70
2024/03/10 01:20:22;;;;;;;48.10;38.58;;;6.30;99.90;;;;;;4957209;28;20046;-71
2024/03/10 01:22:49;;;;;;;45.30;37.83;;;6.20;99.90;;;;;;4976901;28;20046;-70
2024/03/10 01:25:16;;;;;;;48.90;38.33;;;6.20;99.90;;;;;;4968750;28;20777;-69
2024/03/10 01:27:43;;;;;;;45.75;36.65;;;6.30;99.90;;;;;;4981011;28;20931;-69
2024/03/10 01:30:11;;;;;;;45.60;36.83;;;6.20;99.90;;;;;;4967869;28;20050;-69
2024/03/10 01:32:38;;;;;;;49.53;39.17;;;6.20;99.90;;;;;;4977798;28;20518;-71
2024/03/10 01:35:05;;;;;;;46.75;37.67;;;6.20;99.90;;;;;;4971253;28;20060;-71
2024/03/10 01:37:33;;;;;;;45.25;37.53;;;6.20;99.90;;;;;;4971030;28;20054;-71
2024/03/10 01:40:04;;;;;;;47.28;38.30;;;6.20;99.90;;;;;;4976205;28;20095;-70
2024/03/10 01:42:32;;;;;;;48.22;38.33;;;6.20;99.90;;;;;;4974790;28;20065;-70
2024/03/10 01:45:01;;;;;;;46.78;37.88;;;6.30;99.90;;;;;;4970956;28;20621;-69
2024/03/10 01:47:28;;;;;;;46.63;37.58;;;6.20;99.90;;;;;;4972814;28;20104;-69
2024/03/10 01:49:55;;;;;;;42.92;35.53;;;6.20;99.90;;;;;;4974851;28;20053;-70
2024/03/10 01:52:23;;;;;;;43.08;35.85;;;6.30;99.90;;;;;;4969636;28;20058;-70
2024/03/10 01:54:51;;;;;;;43.78;38.15;;;6.30;99.90;;;;;;4976917;28;20046;-68
2024/03/10 01:57:18;;;;;;;45.35;36.88;;;6.30;99.90;;;;;;4966368;28;20059;-70
2024/03/10 01:59:47;;;;;;;46.78;36.30;;;6.20;99.90;;;;;;4972366;28;20047;-69
2024/03/10 02:02:14;;;;;;;51.72;39.58;;;6.30;99.90;;;;;;4971601;28;20042;-71
2024/03/10 02:04:41;;;;;;;42.63;35.13;;;6.30;99.90;;;;;;4972296;28;20057;-69
2024/03/10 02:07:08;;;;;;;45.88;37.20;;;6.30;99.90;;;;;;4971171;28;20054;-71
2024/03/10 02:09:37;;;;;;;50.00;38.80;;;6.20;99.90;;;;;;4972884;28;20095;-69
2024/03/10 02:12:05;;;;;;;42.38;35.13;;;6.30;99.90;;;;;;4972110;28;20047;-70
2024/03/10 02:14:32;;;;;;;46.15;37.03;;;6.30;99.90;;;;;;4971277;28;21261;-70
2024/03/10 02:17:00;;;;;;;42.20;36.70;;;6.40;99.90;;;;;;4973048;28;20416;-69
2024/03/10 02:19:27;;;;;;;48.88;39.15;;;6.40;99.90;;;;;;4968222;28;20066;-70
2024/03/10 02:21:54;;;;;;;45.58;37.83;;;6.40;99.90;;;;;;4972708;28;20048;-70
2024/03/10 02:24:30;;;;;;;45.28;38.00;;;6.30;99.90;;;;;;4969294;28;20121;-70
2024/03/10 02:26:57;;;;;;;44.17;35.80;;;6.30;99.90;;;;;;4970495;28;20046;-71
2024/03/10 02:29:26;;;;;;;45.00;36.60;;;6.30;99.90;;;;;;4964015;28;20409;-71
2024/03/10 02:48:29;;;;;;;49.50;38.72;;;6.20;99.90;;;;;;4964939;28;20058;-70
2024/03/10 02:50:56;;;;;;;44.28;37.55;;;6.10;99.90;;;;;;4975506;28;20056;-71
2024/03/10 02:53:23;;;;;;;47.47;37.88;;;6.20;99.90;;;;;;4971523;28;20082;-70
2024/03/10 02:55:50;;;;;;;47.08;37.75;;;6.10;99.90;;;;;;4972847;28;20049;-69
2024/03/10 02:58:17;;;;;;;48.35;38.30;;;6.10;99.90;;;;;;4964073;28;20570;-69
2024/03/10 03:00:44;;;;;;;46.90;37.95;;;6.10;99.90;;;;;;4973451;28;20049;-68
2024/03/10 03:03:11;;;;;;;48.47;40.15;;;6.10;99.90;;;;;;4976616;28;20065;-69
2024/03/10 03:05:39;;;;;;;46.20;38.17;;;6.20;99.90;;;;;;4969598;28;20715;-71
2024/03/10 03:08:08;;;;;;;48.85;37.25;;;6.10;99.90;;;;;;4977035;28;20058;-68
2024/03/10 03:10:36;;;;;;;45.55;37.90;;;6.10;99.90;;;;;;4962951;28;20057;-69
2024/03/10 03:13:04;;;;;;;44.50;37.33;;;6.10;99.90;;;;;;4974092;28;20046;-70
2024/03/10 03:15:31;;;;;;;48.45;36.90;;;6.10;99.90;;;;;;4970842;28;20138;-71
2024/03/10 03:17:58;;;;;;;47.45;37.65;;;6.00;99.90;;;;;;4969734;28;20207;-70
2024/03/10 03:20:26;;;;;;;50.75;38.20;;;6.00;99.90;;;;;;4964238;28;20049;-68
2024/03/10 03:22:54;;;;;;;48.10;40.05;;;5.90;99.90;;;;;;4970698;28;20052;-71
2024/03/10 03:25:22;;;;;;;52.65;39.63;;;5.90;99.90;;;;;;4970053;28;20071;-71
2024/03/10 03:27:50;;;;;;;48.35;37.92;;;5.90;99.90;;;;;;4970524;28;20046;-70
2024/03/10 03:30:17;;;;;;;45.38;37.10;;;5.90;99.90;;;;;;4968864;28;20049;-71
2024/03/10 03:32:45;;;;;;;49.13;37.65;;;5.80;99.90;;;;;;4961700;28;21321;-70
2024/03/10 03:35:16;;;;;;;50.08;39.17;;;5.90;99.90;;;;;;4952972;28;20051;-70
2024/03/10 03:37:45;;;;;;;53.70;39.78;;;5.80;99.90;;;;;;4952433;28;20043;-70
2024/03/10 03:40:16;;;;;;;46.55;37.47;;;5.80;99.90;;;;;;4970762;28;20046;-71
2024/03/10 03:42:43;;;;;;;49.58;39.38;;;5.80;99.90;;;;;;4966468;28;20141;-70
2024/03/10 03:45:10;;;;;;;51.60;38.50;;;5.90;99.90;;;;;;4956188;28;20117;-71
2024/03/10 03:47:37;;;;;;;48.55;37.20;;;6.00;99.90;;;;;;4968577;28;20057;-70
2024/03/10 03:50:05;;;;;;;51.47;38.97;;;6.00;99.90;;;;;;4968715;28;20058;-70
2024/03/10 03:52:32;;;;;;;48.80;38.92;;;6.00;99.90;;;;;;4944769;28;20051;-71
2024/03/10 03:55:00;;;;;;;45.58;38.13;;;5.90;99.90;;;;;;4949876;28;20684;-70
2024/03/10 03:57:33;;;;;;;50.40;37.75;;;5.90;99.90;;;;;;4963227;28;20098;-70
2024/03/10 04:00:05;;;;;;;45.97;37.40;;;6.00;99.90;;;;;;4952026;28;20046;-71
2024/03/10 04:02:33;;;;;;;46.70;37.08;;;5.90;99.90;;;;;;4966983;28;20116;-70
2024/03/10 04:05:03;;;;;;;48.28;37.15;;;5.90;99.90;;;;;;4954944;28;20121;-69
2024/03/10 04:07:30;;;;;;;46.20;37.20;;;6.00;99.90;;;;;;4966922;28;20061;-70
2024/03/10 04:09:57;;;;;;;46.30;36.17;;;6.00;99.90;;;;;;4972817;28;20061;-71
2024/03/10 04:12:24;;;;;;;46.67;37.17;;;5.90;99.90;;;;;;4970142;28;20050;-69
2024/03/10 04:14:51;;;;;;;45.92;35.35;;;5.80;99.90;;;;;;4974396;28;20042;-70
2024/03/10 04:17:19;;;;;;;46.97;36.95;;;5.90;99.90;;;;;;4943552;28;20152;-70
2024/03/10 04:19:46;;;;;;;45.95;36.42;;;5.90;99.90;;;;;;4948111;28;20031;-70
2024/03/10 04:22:14;;;;;;;47.50;37.38;;;5.90;99.90;;;;;;4954686;28;20047;-70
2024/03/10 04:24:41;;;;;;;47.28;37.25;;;6.00;99.90;;;;;;4953394;28;20057;-69
2024/03/10 04:27:09;;;;;;;52.38;39.13;;;5.90;99.90;;;;;;4952799;28;20595;-69
2024/03/10 04:29:36;;;;;;;49.45;39.00;;;5.90;99.90;;;;;;4943388;28;20042;-71
2024/03/10 04:32:07;;;;;;;50.20;39.70;;;5.90;99.90;;;;;;4953323;28;20197;-70
2024/03/10 04:34:36;;;;;;;55.60;39.17;;;5.90;99.90;;;;;;4945494;28;20385;-69
2024/03/10 04:37:08;;;;;;;55.45;39.85;;;5.90;99.90;;;;;;4970942;28;20043;-71
2024/03/10 04:39:36;;;;;;;52.97;40.53;;;5.80;99.90;;;;;;4951787;28;20051;-71
2024/03/10 04:42:04;;;;;;;56.63;40.00;;;5.80;99.90;;;;;;4937356;28;20110;-69
2024/03/10 04:44:31;;;;;;;51.90;40.53;;;5.80;99.90;;;;;;4936898;28;20118;-69
2024/03/10 04:46:58;;;;;;;48.22;37.33;;;5.90;99.90;;;;;;4955700;28;20051;-71
2024/03/10 04:49:26;;;;;;;57.20;42.03;;;5.80;99.90;;;;;;4939630;28;20050;-68
2024/03/10 04:51:53;;;;;;;54.58;39.58;;;5.80;99.90;;;;;;4953159;28;20059;-71
2024/03/10 04:54:20;;;;;;;55.22;39.38;;;5.70;99.90;;;;;;4952915;28;20047;-70
2024/03/10 04:56:47;;;;;;;58.60;41.38;;;5.70;99.90;;;;;;4952617;28;20650;-71
2024/03/10 04:59:14;;;;;;;52.85;39.92;;;5.70;99.90;;;;;;4960014;28;20046;-69
2024/03/10 05:01:42;;;;;;;56.28;37.72;;;5.60;99.90;;;;;;4955216;28;20050;-70
2024/03/10 05:04:10;;;;;;;53.22;40.13;;;5.60;99.90;;;;;;4955131;28;20054;-71
2024/03/10 05:06:37;;;;;;;51.22;36.85;;;5.60;99.90;;;;;;4950248;28;20077;-68
2024/03/10 05:09:04;;;;;;;54.58;38.83;;;5.50;99.90;;;;;;4956577;28;20058;-69
2024/03/10 05:11:31;;;;;;;54.33;40.47;;;5.50;99.90;;;;;;4952451;28;20042;-69
2024/03/10 05:13:59;;;;;;;54.72;38.65;;;5.50;99.90;;;;;;4953208;28;20047;-71
2024/03/10 05:16:26;;;;;;;53.47;38.75;;;5.50;99.90;;;;;;4950412;28;20103;-71
2024/03/10 05:18:54;;;;;;;58.00;38.53;;;5.50;99.90;;;;;;4935970;28;20055;-71
2024/03/10 05:21:25;;;;;;;56.53;39.22;;;5.50;99.90;;;;;;4951964;28;20047;-71
2024/03/10 05:23:53;;;;;;;53.45;39.53;;;5.60;99.90;;;;;;4952679;28;20770;-71
2024/03/10 05:26:20;;;;;;;58.13;41.72;;;5.50;99.90;;;;;;4941721;28;20107;-71
2024/03/10 05:28:48;;;;;;;59.58;39.80;;;5.60;99.90;;;;;;4948849;28;20050;-70
2024/03/10 05:31:27;;;;;;;51.70;38.33;;;5.60;99.90;;;;;;4952307;28;20057;-70
2024/03/10 05:34:00;;;;;;;53.78;39.40;;;5.60;99.90;;;;;;4950009;28;20059;-69
2024/03/10 05:36:27;;;;;;;55.78;40.47;;;5.60;99.90;;;;;;4949661;28;20042;-71
2024/03/10 05:38:55;;;;;;;58.03;40.45;;;5.50;99.90;;;;;;4937837;28;20043;-70
2024/03/10 05:41:22;;;;;;;52.25;39.40;;;5.50;99.90;;;;;;4955032;28;20179;-71
2024/03/10 05:43:50;;;;;;;50.80;39.03;;;5.60;99.90;;;;;;4944383;28;20142;-70
2024/03/10 05:46:17;;;;;;;55.65;42.20;;;5.70;99.90;;;;;;4937397;28;20721;-70
2024/03/10 05:48:45;;;;;;;56.00;40.55;;;5.70;99.90;;;;;;4920386;28;20730;-69
2024/03/10 05:51:16;;;;;;;60.90;40.67;;;5.70;99.90;;;;;;4948169;28;20055;-71
2024/03/10 05:53:43;;;;;;;58.13;41.90;;;5.80;99.90;;;;;;4947638;28;20062;-68
2024/03/10 05:56:10;;;;;;;63.05;44.67;;;5.70;99.90;;;;;;4956856;28;20042;-69
2024/03/10 05:58:42;;;;;;;57.35;42.15;;;5.70;99.90;;;;;;4931827;28;20129;-69
2024/03/10 06:01:11;;;;;;;58.65;40.60;;;5.80;99.90;;;;;;4971956;28;20050;-71
2024/03/10 06:03:39;;;;;;;57.45;39.80;;;5.80;99.90;;;;;;4968465;28;20064;-69
2024/03/10 06:06:09;;;;;;;58.00;40.55;;;5.90;99.90;;;;;;4965729;28;20054;-69
2024/03/10 06:08:36;;;;;;;66.45;45.60;;;5.90;99.90;;;;;;4966206;28;20145;-72
2024/03/10 06:11:03;;;;;;;67.85;46.90;;;6.00;99.90;;;;;;4973205;28;20046;-71
2024/03/10 06:13:31;;;;;;;68.57;51.35;;;6.00;99.90;;;;;;4972947;28;20404;-69
2024/03/10 06:15:59;;;;;;;64.07;46.85;;;6.10;99.90;;;;;;4972000;28;20506;-71
2024/03/10 06:25:22;;;;;;;67.63;49.80;;;6.10;99.90;;;;;;4970646;28;20401;-70
2024/03/10 06:26:53;;;;;;;59.33;46.75;;;6.20;99.90;;;;;;4964651;28;20748;-71
2024/03/10 06:29:26;;;;;;;62.95;49.75;;;6.20;99.90;;;;;;4972924;28;20054;-70
2024/03/10 06:31:56;;;;;;;65.32;49.50;;;6.20;99.90;;;;;;4982871;28;20053;-71
2024/03/10 06:34:23;;;;;;;64.28;47.55;;;6.20;99.90;;;;;;4975027;28;20070;-71
2024/03/10 06:36:50;;;;;;;65.45;49.67;;;6.20;99.90;;;;;;4968719;28;20165;-70
2024/03/10 06:39:20;;;;;;;58.88;45.33;;;6.30;99.90;;;;;;4960372;28;20458;-70
2024/03/10 06:41:47;;;;;;;66.38;47.72;;;6.30;99.90;;;;;;4970064;28;20101;-71
2024/03/10 06:44:19;;;;;;;68.47;51.13;;;6.40;99.90;;;;;;4970155;28;20042;-70
2024/03/10 06:46:46;;;;;;;65.30;50.50;;;6.40;99.90;;;;;;4966053;28;20117;-71
2024/03/10 06:49:14;;;;;;;62.08;45.03;;;6.50;99.90;;;;;;4989842;28;20050;-71
2024/03/10 06:51:42;;;;;;;65.93;48.92;;;6.50;99.90;;;;;;4969563;28;20042;-69
2024/03/10 06:54:10;;;;;;;60.60;46.45;;;6.60;99.90;;;;;;4972414;28;20041;-71
2024/03/10 06:56:37;;;;;;;69.35;51.45;;;6.60;99.90;;;;;;4976704;28;20042;-71
2024/03/10 06:59:05;;;;;;;65.97;50.97;;;6.70;99.90;;;;;;4970741;28;20230;-69
2024/03/10 07:01:32;;;;;;;62.83;48.83;;;6.80;99.90;;;;;;4971618;28;20039;-71
2024/03/10 07:03:59;;;;;;;62.60;49.58;;;6.80;99.90;;;;;;4968687;28;20054;-71
2024/03/10 07:06:26;;;;;;;62.97;50.70;;;6.80;99.90;;;;;;4964161;28;20050;-72
2024/03/10 07:08:54;;;;;;;66.15;51.20;;;6.90;99.90;;;;;;4969834;28;20074;-72
2024/03/10 07:11:21;;;;;;;60.90;48.08;;;6.90;99.90;;;;;;4969742;28;20096;-71
2024/03/10 07:13:50;;;;;;;60.30;48.60;;;6.90;99.90;;;;;;4966519;28;20047;-71
2024/03/10 07:16:18;;;;;;;63.08;51.30;;;6.90;99.90;;;;;;4969801;28;20548;-71
2024/03/10 07:18:45;;;;;;;66.38;54.67;;;6.90;99.90;;;;;;4950027;28;20536;-71
2024/03/10 07:21:16;;;;;;;62.88;50.03;;;6.90;99.90;;;;;;4969923;28;20503;-71
2024/03/10 07:23:43;;;;;;;61.13;48.58;;;6.80;99.90;;;;;;4973395;28;20054;-70
2024/03/10 07:26:11;;;;;;;72.60;56.70;;;6.80;99.90;;;;;;4971191;28;20736;-71
2024/03/10 07:28:38;;;;;;;71.97;55.47;;;6.80;99.90;;;;;;4946675;28;20051;-68
2024/03/10 07:31:06;;;;;;;70.95;53.25;;;6.80;99.90;;;;;;4971818;28;20046;-71
2024/03/10 07:33:33;;;;;;;68.38;53.60;;;6.80;99.90;;;;;;4971430;28;20053;-71
2024/03/10 07:36:01;;;;;;;74.97;55.80;;;6.80;99.90;;;;;;4966241;28;20156;-71
2024/03/10 07:38:28;;;;;;;74.25;57.30;;;6.80;99.90;;;;;;4971188;28;20056;-70
2024/03/10 07:40:55;;;;;;;78.85;59.95;;;6.80;99.90;;;;;;4968390;28;20126;-72
2024/03/10 07:43:28;;;;;;;81.05;59.90;;;6.80;99.90;;;;;;4952142;28;20051;-72
2024/03/10 07:45:55;;;;;;;79.28;59.47;;;6.70;99.90;;;;;;4969600;28;20128;-71
2024/03/10 07:48:23;;;;;;;79.78;62.55;;;6.70;99.90;;;;;;4970196;28;20049;-71
2024/03/10 07:50:50;;;;;;;84.55;62.88;;;6.70;99.90;;;;;;4965355;28;20072;-71
2024/03/10 07:53:17;;;;;;;79.40;62.13;;;6.80;99.90;;;;;;4970649;28;20042;-71
2024/03/10 07:55:45;;;;;;;79.05;61.90;;;6.80;99.90;;;;;;4971626;28;20105;-71
2024/03/10 07:58:12;;;;;;;78.82;64.20;;;6.80;99.90;;;;;;4968708;28;20043;-72
2024/03/10 08:00:39;;;;;;;74.70;62.97;;;6.80;99.90;;;;;;4972433;28;20046;-70
2024/03/10 08:03:09;;;;;;;76.05;65.05;;;6.70;99.90;;;;;;4975654;28;20042;-71
2024/03/10 08:05:37;;;;;;;76.18;61.63;;;6.80;99.90;;;;;;4974094;28;20070;-71
2024/03/10 08:08:04;;;;;;;72.97;57.83;;;6.70;99.90;;;;;;4970067;28;20046;-71
2024/03/10 08:10:32;;;;;;;81.35;65.38;;;6.70;99.90;;;;;;4967314;28;20043;-71
2024/03/10 08:12:59;;;;;;;79.35;64.10;;;6.70;99.90;;;;;;4969261;28;20046;-71
2024/03/10 08:15:30;;;;;;;81.75;66.85;;;6.70;99.90;;;;;;4983652;28;20046;-69
2024/03/10 08:17:58;;;;;;;76.45;58.03;;;6.70;99.90;;;;;;4962230;28;20648;-72
2024/03/10 08:20:27;;;;;;;77.80;63.70;;;6.80;99.90;;;;;;4958129;28;20753;-70
2024/03/10 08:22:54;;;;;;;83.55;63.30;;;6.80;99.90;;;;;;4967947;28;20560;-71
2024/03/10 08:25:21;;;;;;;75.97;60.00;;;6.90;99.90;;;;;;4952165;28;21051;-70
2024/03/10 08:27:53;;;;;;;74.32;58.85;;;6.90;99.90;;;;;;4964631;28;20047;-72
2024/03/10 08:30:20;;;;;;;79.82;63.63;;;6.90;99.90;;;;;;4961962;28;20137;-71
2024/03/10 08:32:48;;;;;;;76.55;61.05;;;7.00;99.90;;;;;;4961715;28;20050;-70
2024/03/10 08:35:17;;;;;;;75.18;60.20;;;6.90;99.90;;;;;;4974054;28;20061;-71
2024/03/10 08:37:45;;;;;;;80.82;60.03;;;7.00;99.90;;;;;;4968429;28;20503;-70
2024/03/10 08:40:17;;;;;;;73.93;56.40;;;7.00;99.90;;;;;;4974437;28;20058;-72
2024/03/10 08:42:45;;;;;;;79.03;61.92;;;7.10;99.90;;;;;;4969236;28;20089;-70
2024/03/10 08:45:13;;;;;;;83.38;62.50;;;7.10;99.90;;;;;;4970459;28;20056;-71
2024/03/10 08:47:42;;;;;;;76.20;58.10;;;7.10;99.90;;;;;;4974752;28;20057;-71
2024/03/10 08:50:11;;;;;;;77.35;55.22;;;7.10;99.90;;;;;;4970654;28;20054;-70
2024/03/10 08:52:39;;;;;;;75.88;59.50;;;7.20;99.90;;;;;;4969245;28;20132;-71
2024/03/10 08:55:08;;;;;;;79.55;60.78;;;7.20;99.90;;;;;;4973056;28;20516;-72
2024/03/10 08:57:37;;;;;;;80.13;61.67;;;7.30;99.90;;;;;;4973392;28;20134;-70
2024/03/10 09:00:06;;;;;;;73.32;60.85;;;7.40;99.90;;;;;;4970013;28;20507;-69
2024/03/10 09:02:33;;;;;;;75.40;62.03;;;7.30;99.90;;;;;;4966291;28;20046;-70
2024/03/10 09:05:07;;;;;;;77.07;61.70;;;7.40;99.90;;;;;;4966027;28;20057;-70
2024/03/10 09:07:35;;;;;;;78.82;64.72;;;7.40;99.90;;;;;;4980425;28;20074;-71
2024/03/10 09:10:04;;;;;;;76.20;57.17;;;7.40;99.90;;;;;;4971564;28;20085;-71
2024/03/10 09:12:32;;;;;;;64.28;50.03;;;7.50;99.90;;;;;;4960497;28;20173;-71
2024/03/10 09:15:01;;;;;;;79.82;59.05;;;7.50;99.90;;;;;;4969494;28;20584;-70
2024/03/10 09:17:29;;;;;;;74.90;61.20;;;7.40;99.90;;;;;;4973149;28;20226;-71
2024/03/10 09:19:58;;;;;;;78.80;62.92;;;7.50;99.90;;;;;;4971986;28;20071;-72
2024/03/10 09:22:27;;;;;;;73.88;57.58;;;7.60;99.90;;;;;;4971141;28;20147;-71
2024/03/10 09:24:54;;;;;;;71.03;58.60;;;7.70;99.90;;;;;;4970592;28;20132;-71
2024/03/10 09:27:21;;;;;;;76.70;61.35;;;7.80;99.90;;;;;;4976751;28;20136;-71
2024/03/10 09:29:51;;;;;;;69.85;53.40;;;7.80;99.90;;;;;;4967758;28;20142;-70
2024/03/10 09:32:22;;;;;;;74.90;61.20;;;7.90;99.90;;;;;;4976810;28;20128;-71
2024/03/10 09:34:51;;;;;;;73.30;60.58;;;8.00;99.90;;;;;;4963199;28;20336;-71
2024/03/10 09:37:18;;;;;;;69.00;53.70;;;8.10;99.90;;;;;;4974833;28;20039;-71
2024/03/10 09:39:45;;;;;;;70.57;58.42;;;8.20;99.90;;;;;;4980216;28;20157;-71
2024/03/10 09:42:14;;;;;;;67.95;59.15;;;8.30;99.90;;;;;;4973765;28;20066;-73
2024/03/10 09:44:45;;;;;;;71.13;60.78;;;8.70;99.90;;;;;;4968254;28;20515;-70
2024/03/10 09:47:14;;;;;;;66.68;59.05;;;8.90;99.90;;;;;;4969474;28;20070;-70
2024/03/10 09:49:43;;;;;;;67.25;59.83;;;8.70;99.90;;;;;;4965116;28;20058;-71
2024/03/10 09:52:10;;;;;;;73.18;62.88;;;8.50;99.90;;;;;;4952306;28;20244;-71
2024/03/10 09:54:38;;;;;;;72.68;58.75;;;8.50;99.90;;;;;;4964683;28;20047;-71
2024/03/10 09:57:08;;;;;;;72.30;61.42;;;8.50;99.90;;;;;;4967182;28;20570;-71
2024/03/10 09:59:44;;;;;;;63.30;56.45;;;8.40;99.90;;;;;;4976444;28;20057;-71
2024/03/10 10:02:29;;;;;;;69.18;56.67;;;8.50;99.90;;;;;;4974235;28;20512;-70
2024/03/10 10:05:06;;;;;;;75.10;64.88;;;8.50;99.90;;;;;;4959559;28;20395;-69
2024/03/10 10:07:34;;;;;;;68.70;61.15;;;8.50;99.90;;;;;;4970860;28;20054;-71
2024/03/10 10:10:04;;;;;;;71.05;58.40;;;8.60;99.90;;;;;;4964231;28;20145;-71
2024/03/10 10:12:31;;;;;;;68.82;58.13;;;8.60;99.90;;;;;;4954634;28;20054;-72
2024/03/10 10:14:58;;;;;;;70.63;62.80;;;8.70;99.90;;;;;;4966984;28;20086;-71
2024/03/10 10:17:26;;;;;;;62.58;52.38;;;8.60;99.90;;;;;;4974903;28;20144;-71
2024/03/10 10:19:55;;;;;;;73.50;61.20;;;8.50;99.90;;;;;;4956400;28;20145;-72
2024/03/10 10:22:23;;;;;;;67.57;58.35;;;8.80;99.90;;;;;;4979585;28;20051;-71
2024/03/10 10:25:02;;;;;;;65.22;57.10;;;8.90;99.90;;;;;;4961176;28;20043;-70
2024/03/10 10:27:57;;;;;;;61.75;55.00;;;9.00;99.90;;;;;;4967396;28;20133;-69
2024/03/10 10:30:27;;;;;;;70.22;58.15;;;8.80;99.90;;;;;;4966462;28;20085;-71
2024/03/10 10:33:05;;;;;;;66.05;54.33;;;9.00;99.90;;;;;;4950715;28;20054;-70
2024/03/10 10:35:39;;;;;;;65.85;58.97;;;9.10;99.90;;;;;;4958092;28;20046;-71
2024/03/10 10:38:11;;;;;;;65.93;58.53;;;9.00;99.90;;;;;;4965537;28;20054;-72
2024/03/10 10:40:54;;;;;;;67.28;59.42;;;9.00;99.90;;;;;;4982027;28;20069;-72
2024/03/10 10:43:22;;;;;;;63.17;55.97;;;9.10;99.90;;;;;;4965588;28;20047;-70
2024/03/10 10:45:50;;;;;;;63.42;56.50;;;9.30;99.90;;;;;;4968526;28;20077;-71
2024/03/10 10:48:18;;;;;;;63.03;56.05;;;9.40;99.90;;;;;;4971857;28;20058;-70
2024/03/10 10:50:47;;;;;;;64.90;58.05;;;9.60;99.90;;;;;;4978175;28;20642;-71
2024/03/10 10:53:15;;;;;;;65.00;58.35;;;9.70;99.90;;;;;;4979238;28;20145;-72
2024/03/10 10:55:45;;;;;;;60.70;54.50;;;9.90;99.90;;;;;;4976977;28;20057;-71
2024/03/10 10:58:16;;;;;;;62.65;56.13;;;10.10;99.90;;;;;;4968735;28;20917;-71
2024/03/10 11:00:58;;;;;;;60.88;54.63;;;10.10;99.90;;;;;;4967454;28;20047;-72
2024/03/10 11:03:26;;;;;;;58.83;53.15;;;10.40;99.90;;;;;;4971027;28;20057;-71
2024/03/10 11:06:02;;;;;;;60.53;54.85;;;10.40;99.90;;;;;;4963278;28;20046;-69
2024/03/10 11:08:30;;;;;;;58.88;53.05;;;10.70;99.90;;;;;;4967724;28;20122;-70
2024/03/10 11:10:58;;;;;;;60.00;54.60;;;10.90;99.90;;;;;;4969097;28;20054;-71
2024/03/10 11:13:27;;;;;;;56.17;50.65;;;11.40;99.90;;;;;;4971696;28;20152;-72
2024/03/10 11:16:09;;;;;;;54.67;49.47;;;11.60;99.90;;;;;;4968553;28;20152;-70
2024/03/10 11:18:38;;;;;;;52.90;47.60;;;11.60;99.90;;;;;;4978257;28;20646;-71
2024/03/10 11:21:06;;;;;;;51.90;47.05;;;11.70;99.90;;;;;;4968688;28;20046;-70
2024/03/10 11:23:38;;;;;;;54.65;49.53;;;11.70;99.90;;;;;;4974299;28;20054;-71
2024/03/10 11:26:12;;;;;;;54.42;49.08;;;11.60;99.90;;;;;;4974158;28;20125;-71
2024/03/10 11:28:52;;;;;;;52.00;46.83;;;11.80;99.90;;;;;;4966795;28;20133;-72
2024/03/10 11:31:22;;;;;;;52.47;47.75;;;11.90;99.90;;;;;;4965952;28;20050;-71
2024/03/10 11:33:53;;;;;;;52.17;47.17;;;11.80;99.90;;;;;;4972514;28;20755;-71
2024/03/10 11:36:23;;;;;;;50.70;45.58;;;11.70;99.90;;;;;;4966033;28;20053;-73
2024/03/10 11:38:55;;;;;;;53.22;48.22;;;11.70;99.90;;;;;;4970901;28;20054;-72
2024/03/10 11:41:23;;;;;;;50.83;45.75;;;12.00;99.90;;;;;;4975125;28;20471;-71
2024/03/10 11:43:51;;;;;;;47.20;42.50;;;12.00;99.90;;;;;;4965685;28;20650;-72
2024/03/10 11:46:26;;;;;;;51.33;46.55;;;11.80;99.90;;;;;;4968996;28;20727;-73
2024/03/10 11:48:56;;;;;;;53.30;48.17;;;11.60;99.90;;;;;;4951765;28;20042;-71
2024/03/10 11:51:30;;;;;;;51.85;46.75;;;11.70;99.90;;;;;;4967678;28;20145;-72
2024/03/10 11:53:58;;;;;;;46.13;41.60;;;11.60;99.90;;;;;;4971805;28;20078;-71
2024/03/10 11:56:26;;;;;;;46.40;41.63;;;11.60;99.90;;;;;;4972560;28;20712;-72
2024/03/10 11:58:58;;;;;;;48.55;44.15;;;11.40;99.90;;;;;;4970839;28;20335;-71
2024/03/10 12:01:28;;;;;;;50.03;45.35;;;11.50;99.90;;;;;;4976122;28;20046;-70
2024/03/10 12:04:00;;;;;;;56.40;51.20;;;11.70;99.90;;;;;;4963297;28;20058;-71
2024/03/10 12:06:29;;;;;;;51.10;46.58;;;11.80;99.90;;;;;;4970181;28;20168;-70
2024/03/10 12:08:57;;;;;;;51.40;46.60;;;11.60;99.90;;;;;;4974326;28;20054;-70
2024/03/10 12:11:24;;;;;;;55.60;50.72;;;11.30;99.90;;;;;;4975515;28;20129;-71
2024/03/10 12:13:53;;;;;;;52.10;47.63;;;11.30;99.90;;;;;;4965988;28;20530;-70
2024/03/10 12:16:22;;;;;;;51.08;46.45;;;11.30;99.90;;;;;;4969559;28;20674;-72
2024/03/10 12:18:49;;;;;;;53.13;48.28;;;11.40;99.90;;;;;;4972984;28;20148;-70
2024/03/10 12:21:18;;;;;;;52.08;47.40;;;11.30;99.90;;;;;;4970041;28;20043;-71
2024/03/10 12:23:46;;;;;;;57.58;52.13;;;11.00;99.90;;;;;;4972827;28;20122;-71
2024/03/10 12:26:15;;;;;;;55.42;50.28;;;11.00;99.90;;;;;;4967594;28;20069;-71
2024/03/10 12:28:46;;;;;;;64.88;58.05;;;11.00;99.90;;;;;;4969089;28;20054;-72
2024/03/10 12:31:16;;;;;;;52.95;47.90;;;11.10;99.90;;;;;;4968390;28;20043;-72
2024/03/10 12:33:46;;;;;;;57.78;52.13;;;11.00;99.90;;;;;;4975702;28;20061;-72
2024/03/10 12:36:13;;;;;;;56.83;51.22;;;11.10;99.90;;;;;;4965936;28;20919;-72
2024/03/10 12:38:40;;;;;;;67.32;60.15;;;11.10;99.90;;;;;;4973520;28;20050;-71
2024/03/10 12:41:09;;;;;;;60.63;54.70;;;11.30;99.90;;;;;;4967979;28;21652;-72
2024/03/10 12:43:41;;;;;;;59.70;54.30;;;11.50;99.90;;;;;;4960013;28;20108;-72
2024/03/10 12:46:14;;;;;;;64.97;58.35;;;11.60;99.90;;;;;;4975493;28;20069;-71
2024/03/10 12:48:41;;;;;;;54.15;49.47;;;11.70;99.90;;;;;;4972846;28;20595;-73
2024/03/10 12:51:09;;;;;;;54.97;50.13;;;11.80;99.90;;;;;;4964524;28;20053;-72
2024/03/10 12:53:38;;;;;;;48.15;43.25;;;11.90;99.90;;;;;;4969030;28;20718;-72
2024/03/10 12:56:09;;;;;;;56.30;51.22;;;11.80;99.90;;;;;;4962177;28;20054;-71
2024/03/10 12:58:36;;;;;;;54.50;49.63;;;11.60;99.90;;;;;;4937114;28;20038;-70
2024/03/10 13:01:04;;;;;;;55.38;50.50;;;11.60;99.90;;;;;;4967315;28;20046;-72
2024/03/10 13:03:33;;;;;;;56.47;51.28;;;11.50;99.90;;;;;;4970597;28;20052;-71
2024/03/10 13:06:02;;;;;;;59.88;54.25;;;11.40;99.90;;;;;;4966793;28;20069;-70